Time;durP1;ratioP1;P1;durP2;ratioP2;P2;SDS_P1;SDS_P2;PMS_P1;PMS_P2;Temp;Humidity;BMP_temperature;BMP_pressure;BME280_temperature;BME280_humidity;BME280_pressure;Samples;Min_cycle;Max_cycle;Signal;HPM_P1;HPM_P2
2022/07/04 00:01:22;;;;;;;;;;;;;;;24.54;59.35;101113.00;1720879;81;25864;-55
2022/07/04 00:03:49;;;;;;;;;;;;;;;24.51;59.76;101109.86;1722837;82;25686;-55
2022/07/04 00:06:16;;;;;;;;;;;;;;;24.47;59.40;101106.71;1734878;81;27473;-56
2022/07/04 00:08:43;;;;;;;;;;;;;;;24.43;59.53;101108.20;1732063;81;25837;-55
2022/07/04 00:11:09;;;;;;;;;;;;;;;24.40;59.55;101111.92;1722829;81;25781;-55
2022/07/04 00:13:36;;;;;;;;;;;;;;;24.40;59.58;101120.17;1723666;81;27904;-56
2022/07/04 00:16:03;;;;;;;;;;;;;;;24.38;59.76;101113.53;1729843;81;25805;-55
2022/07/04 00:18:30;;;;;;;;;;;;;;;24.38;59.58;101119.03;1723759;80;27890;-56
2022/07/04 00:20:56;;;;;;;;;;;;;;;24.37;59.61;101118.17;1731424;81;25793;-55
2022/07/04 00:23:23;;;;;;;;;;;;;;;24.38;59.63;101126.73;1737000;80;25828;-54
2022/07/04 00:25:50;;;;;;;;;;;;;;;24.36;59.98;101119.77;1725091;81;25776;-56
2022/07/04 00:28:17;;;;;;;;;;;;;;;24.33;61.48;101124.33;1725630;81;25867;-56
2022/07/04 00:30:43;;;;;;;;;;;;;;;24.21;60.97;101118.68;1748811;81;28181;-55
2022/07/04 00:33:12;;;;;;;;;;;;;;;24.18;60.80;101120.48;1721791;82;25818;-56
2022/07/04 00:35:39;;;;;;;;;;;;;;;24.19;60.68;101122.17;1721988;82;25900;-56
2022/07/04 00:38:06;;;;;;;;;;;;;;;24.19;60.96;101119.42;1735641;81;25814;-54
2022/07/04 00:40:32;;;;;;;;;;;;;;;24.19;60.80;101119.42;1727816;81;25872;-55
2022/07/04 00:43:03;;;;;;;;;;;;;;;24.19;61.01;101118.91;1737334;81;27394;-55
2022/07/04 00:45:30;;;;;;;;;;;;;;;24.18;60.67;101114.98;1717206;80;25808;-55
2022/07/04 00:47:57;;;;;;;;;;;;;;;24.16;60.99;101113.84;1687788;82;25857;-55
2022/07/04 00:50:25;;;;;;;;;;;;;;;24.17;60.75;101116.91;1690344;82;26814;-56
2022/07/04 00:52:53;;;;;;;;;;;;;;;24.17;60.87;101116.91;1688281;83;25740;-53
2022/07/04 00:55:22;;;;;;;;;;;;;;;24.19;61.21;101116.16;1690184;82;27450;-55
2022/07/04 00:57:49;;;;;;;;;;;;;;;24.22;61.13;101123.95;1703060;80;25790;-54
2022/07/04 01:00:22;;;;;;;;;;;;;;;24.23;60.74;101109.15;1730485;80;25712;-55
2022/07/04 01:02:46;;;;;;;;;;;;;;;24.23;60.72;101116.56;1734306;81;25812;-55
2022/07/04 01:05:14;;;;;;;;;;;;;;;24.19;60.66;101122.17;1729230;81;25781;-56
2022/07/04 01:07:42;;;;;;;;;;;;;;;24.14;61.07;101118.70;1756509;80;27444;-56
2022/07/04 01:10:10;;;;;;;;;;;;;;;24.14;61.07;101126.13;1752272;80;25882;-55
2022/07/04 01:12:37;;;;;;;;;;;;;;;24.10;60.89;101122.97;1753048;80;25750;-55
2022/07/04 01:15:06;;;;;;;;;;;;;;;24.07;60.99;101131.09;1757332;80;26417;-54
2022/07/04 01:17:32;;;;;;;;;;;;;;;24.03;61.45;101121.61;1744063;80;25743;-55
2022/07/04 01:19:59;;;;;;;;;;;;;;;24.00;61.05;101126.16;1747974;80;27462;-55
2022/07/04 01:22:25;;;;;;;;;;;;;;;23.97;60.98;101124.38;1747759;80;25859;-55
2022/07/04 01:24:52;;;;;;;;;;;;;;;23.93;61.13;101123.94;1755630;80;25730;-55
2022/07/04 01:27:19;;;;;;;;;;;;;;;23.90;61.27;101125.73;1753064;80;26784;-53
2022/07/04 01:29:46;;;;;;;;;;;;;;;23.88;61.18;101119.09;1753835;80;25695;-54
2022/07/04 01:32:13;;;;;;;;;;;;;;;23.85;61.13;101120.06;1757241;80;27478;-55
2022/07/04 01:34:39;;;;;;;;;;;;;;;23.82;61.34;101114.98;1751210;81;25693;-55
2022/07/04 01:37:07;;;;;;;;;;;;;;;23.79;61.95;101112.69;1755930;80;26534;-55
2022/07/04 01:39:33;;;;;;;;;;;;;;;23.71;61.62;101113.76;1752643;80;26653;-55
2022/07/04 01:42:00;;;;;;;;;;;;;;;23.69;62.08;101114.50;1751991;80;26236;-55
2022/07/04 01:44:26;;;;;;;;;;;;;;;23.67;62.41;101117.47;1743087;80;27515;-56
2022/07/04 01:46:53;;;;;;;;;;;;;;;23.63;62.13;101118.95;1745628;80;25747;-55
2022/07/04 01:49:21;;;;;;;;;;;;;;;23.56;62.10;101113.48;1753402;80;25898;-55
2022/07/04 01:51:49;;;;;;;;;;;;;;;23.52;62.14;101112.22;1743552;80;25838;-55
2022/07/04 01:54:16;;;;;;;;;;;;;;;23.49;62.29;101106.31;1753590;80;26015;-55
2022/07/04 01:56:43;;;;;;;;;;;;;;;23.45;62.33;101103.98;1744162;81;27539;-55
2022/07/04 01:59:10;;;;;;;;;;;;;;;23.41;62.41;101105.48;1726178;81;25903;-55
2022/07/04 02:01:37;;;;;;;;;;;;;;;23.40;62.88;101108.42;1708046;83;25916;-55
2022/07/04 02:04:05;;;;;;;;;;;;;;;23.38;62.76;101112.77;1705667;82;25917;-54
2022/07/04 02:06:33;;;;;;;;;;;;;;;23.36;62.68;101113.50;1732453;81;25864;-55
2022/07/04 02:09:19;;;;;;;;;;;;;;;23.35;63.05;101120.59;1746697;80;27694;-54
2022/07/04 02:14:32;;;;;;;;;;;;;;;23.37;63.17;101122.59;1747933;81;25845;-55
2022/07/04 02:16:58;;;;;;;;;;;;;;;23.40;63.27;101127.12;1746375;80;25787;-54
2022/07/04 02:19:25;;;;;;;;;;;;;;;23.41;63.21;101128.82;1758127;80;25775;-55
2022/07/04 02:21:52;;;;;;;;;;;;;;;23.41;63.33;101134.31;1752790;80;27470;-55
2022/07/04 02:24:19;;;;;;;;;;;;;;;23.42;63.90;101130.52;1754878;80;25915;-55
2022/07/04 02:26:48;;;;;;;;;;;;;;;23.36;64.13;101131.34;1748863;80;25490;-56
2022/07/04 02:29:15;;;;;;;;;;;;;;;23.23;64.00;101130.00;1751090;80;25878;-54
2022/07/04 02:31:41;;;;;;;;;;;;;;;23.15;64.58;101129.64;1754188;80;25849;-55
2022/07/04 02:34:09;;;;;;;;;;;;;;;23.18;64.23;101136.12;1756903;80;27456;-55
2022/07/04 02:36:35;;;;;;;;;;;;;;;23.25;64.84;101145.19;1748913;80;25894;-52
2022/07/04 02:39:04;;;;;;;;;;;;;;;23.28;64.70;101145.28;1757727;80;25750;-54
2022/07/04 02:41:32;;;;;;;;;;;;;;;23.28;65.51;101147.52;1756669;80;25879;-55
2022/07/04 02:43:59;;;;;;;;;;;;;;;23.28;64.66;101143.91;1753658;80;25796;-53
2022/07/04 02:46:26;;;;;;;;;;;;;;;23.35;64.59;101143.41;1749369;80;27527;-55
2022/07/04 02:48:53;;;;;;;;;;;;;;;23.37;64.07;101148.13;1748376;80;26616;-55
2022/07/04 02:51:20;;;;;;;;;;;;;;;23.40;63.89;101146.34;1761784;80;25777;-55
2022/07/04 02:53:46;;;;;;;;;;;;;;;23.47;63.53;101143.60;1749492;80;25919;-55
2022/07/04 02:56:13;;;;;;;;;;;;;;;23.52;63.21;101143.80;1748850;80;25792;-55
2022/07/04 02:58:39;;;;;;;;;;;;;;;23.59;63.34;101143.79;1735217;80;28402;-55
2022/07/04 03:01:05;;;;;;;;;;;;;;;23.65;63.26;101150.33;1703235;82;25823;-55
2022/07/04 03:03:32;;;;;;;;;;;;;;;23.69;62.83;101157.93;1710905;82;25885;-56
2022/07/04 03:05:59;;;;;;;;;;;;;;;23.76;62.70;101157.89;1704160;83;25837;-54
2022/07/04 03:08:27;;;;;;;;;;;;;;;23.82;62.47;101147.95;1702390;82;25706;-55
2022/07/04 03:10:53;;;;;;;;;;;;;;;23.85;62.75;101145.61;1703004;83;28223;-54
2022/07/04 03:13:20;;;;;;;;;;;;;;;23.78;62.30;101146.17;1699358;83;25703;-55
2022/07/04 03:15:46;;;;;;;;;;;;;;;23.81;62.29;101151.24;1695080;83;25840;-54
2022/07/04 03:18:13;;;;;;;;;;;;;;;23.86;62.48;101157.47;1707785;82;25799;-55
2022/07/04 03:20:39;;;;;;;;;;;;;;;23.85;62.99;101156.60;1688557;82;25974;-54
2022/07/04 03:23:06;;;;;;;;;;;;;;;23.82;62.33;101154.31;1696616;82;27548;-53
2022/07/04 03:25:32;;;;;;;;;;;;;;;23.84;62.39;101153.57;1702908;81;25785;-55
2022/07/04 03:27:59;;;;;;;;;;;;;;;23.88;62.43;101150.69;1692907;83;25779;-54
2022/07/04 03:30:26;;;;;;;;;;;;;;;23.95;62.16;101160.33;1687117;82;25825;-55
2022/07/04 03:32:52;;;;;;;;;;;;;;;24.02;62.46;101165.80;1687968;82;25493;-53
2022/07/04 03:35:20;;;;;;;;;;;;;;;24.04;62.30;101170.53;1693492;83;27504;-55
2022/07/04 03:37:47;;;;;;;;;;;;;;;24.00;61.80;101170.13;1705198;82;26541;-54
2022/07/04 03:40:13;;;;;;;;;;;;;;;24.03;61.80;101169.70;1692115;82;25763;-55
2022/07/04 03:42:40;;;;;;;;;;;;;;;24.00;61.89;101164.62;1692863;82;25809;-55
2022/07/04 03:45:08;;;;;;;;;;;;;;;23.93;62.01;101164.33;1696815;83;27214;-54
2022/07/04 03:47:35;;;;;;;;;;;;;;;23.80;62.12;101165.20;1703479;82;27594;-54
2022/07/04 03:50:03;;;;;;;;;;;;;;;23.74;62.17;101164.16;1702384;82;25510;-54
2022/07/04 03:52:29;;;;;;;;;;;;;;;23.74;62.02;101168.27;1700211;83;25787;-53
2022/07/04 03:54:56;;;;;;;;;;;;;;;23.78;62.17;101167.31;1689809;83;25881;-55
2022/07/04 03:57:22;;;;;;;;;;;;;;;23.84;62.04;101178.30;1707480;81;25945;-55
2022/07/04 03:59:50;;;;;;;;;;;;;;;23.88;61.93;101177.33;1700702;83;27473;-55
2022/07/04 04:02:18;;;;;;;;;;;;;;;23.94;61.93;101177.00;1694710;83;25891;-54
2022/07/04 04:07:30;;;;;;;;;;;;;;;23.99;61.60;101179.97;1738502;80;25845;-55
2022/07/04 04:09:56;;;;;;;;;;;;;;;23.97;61.88;101174.70;1731236;81;25828;-54
2022/07/04 04:12:23;;;;;;;;;;;;;;;23.96;61.59;101177.13;1725330;81;27537;-55
2022/07/04 04:14:49;;;;;;;;;;;;;;;23.94;61.73;101172.37;1727682;80;25457;-55
2022/07/04 04:17:16;;;;;;;;;;;;;;;23.95;61.63;101173.20;1729531;81;25851;-54
2022/07/04 04:19:42;;;;;;;;;;;;;;;24.00;61.70;101176.16;1728331;81;25960;-55
2022/07/04 04:22:09;;;;;;;;;;;;;;;24.04;61.83;101171.39;1724008;81;26056;-53
2022/07/04 04:24:35;;;;;;;;;;;;;;;24.11;61.56;101167.77;1732757;80;27677;-55
2022/07/04 04:27:03;;;;;;;;;;;;;;;24.16;61.41;101170.73;1728979;82;25781;-56
2022/07/04 04:29:29;;;;;;;;;;;;;;;24.18;61.50;101174.94;1734711;81;25483;-55
2022/07/04 04:31:56;;;;;;;;;;;;;;;24.20;61.26;101175.58;1727718;81;25804;-55
2022/07/04 04:34:22;;;;;;;;;;;;;;;24.29;61.33;101174.78;1729145;80;25830;-56
2022/07/04 04:36:49;;;;;;;;;;;;;;;24.42;61.33;101171.67;1729284;80;27573;-54
2022/07/04 04:39:16;;;;;;;;;;;;;;;24.49;60.83;101168.36;1739342;80;25942;-55
2022/07/04 04:41:42;;;;;;;;;;;;;;;24.50;60.88;101170.05;1737045;80;25757;-54
2022/07/04 04:44:08;;;;;;;;;;;;;;;24.52;60.80;101179.75;1732246;80;26561;-55
2022/07/04 04:46:35;;;;;;;;;;;;;;;24.59;61.11;101176.98;1705104;80;25930;-55
2022/07/04 04:49:02;;;;;;;;;;;;;;;24.67;61.24;101176.75;1690538;83;28251;-55
2022/07/04 04:51:29;;;;;;;;;;;;;;;24.73;60.84;101171.41;1690642;82;25811;-55
2022/07/04 04:53:55;;;;;;;;;;;;;;;24.77;60.64;101172.13;1688731;82;25890;-56
2022/07/04 04:56:22;;;;;;;;;;;;;;;24.80;60.38;101175.82;1685035;82;25896;-55
2022/07/04 04:58:48;;;;;;;;;;;;;;;24.85;60.29;101179.28;1702358;83;25688;-55
2022/07/04 05:01:14;;;;;;;;;;;;;;;24.91;60.21;101174.81;1704529;82;27474;-55
2022/07/04 05:03:41;;;;;;;;;;;;;;;24.99;60.07;101175.91;1711739;82;25835;-55
2022/07/04 05:06:08;;;;;;;;;;;;;;;25.03;60.18;101168.05;1708097;82;25836;-54
2022/07/04 05:08:35;;;;;;;;;;;;;;;25.00;59.97;101164.67;1689037;82;25765;-54
2022/07/04 05:11:02;;;;;;;;;;;;;;;24.94;60.29;101169.70;1694194;82;25870;-55
2022/07/04 05:13:28;;;;;;;;;;;;;;;24.94;60.34;101168.84;1684127;82;27502;-55
2022/07/04 05:16:02;;;;;;;;;;;;;;;24.90;60.42;101168.98;1690101;81;26049;-56
2022/07/04 05:18:25;;;;;;;;;;;;;;;24.88;60.43;101169.19;1695132;83;26510;-56
2022/07/04 05:20:52;;;;;;;;;;;;;;;24.91;60.36;101170.13;1691515;82;26802;-55
2022/07/04 05:23:18;;;;;;;;;;;;;;;24.96;60.08;101169.47;1684681;82;25879;-56
2022/07/04 05:25:45;;;;;;;;;;;;;;;25.00;60.05;101167.42;1685786;82;28481;-56
2022/07/04 05:28:11;;;;;;;;;;;;;;;25.05;60.17;101173.63;1692956;83;25807;-56
2022/07/04 05:30:38;;;;;;;;;;;;;;;25.06;59.90;101169.81;1695122;83;25460;-55
2022/07/04 05:33:04;;;;;;;;;;;;;;;25.10;59.95;101172.42;1689901;83;25810;-55
2022/07/04 05:35:31;;;;;;;;;;;;;;;25.19;59.71;101167.49;1696737;83;25817;-56
2022/07/04 05:37:58;;;;;;;;;;;;;;;25.27;59.65;101166.38;1692786;82;28383;-54
2022/07/04 05:40:25;;;;;;;;;;;;;;;25.36;59.29;101169.16;1695059;83;25815;-55
2022/07/04 05:42:51;;;;;;;;;;;;;;;25.40;59.14;101170.95;1688293;83;25763;-55
2022/07/04 05:45:18;;;;;;;;;;;;;;;25.36;58.78;101180.18;1695927;82;25804;-55
2022/07/04 05:47:45;;;;;;;;;;;;;;;25.31;58.54;101174.48;1730669;80;25887;-56
2022/07/04 05:50:11;;;;;;;;;;;;;;;25.38;58.72;101168.92;1733822;80;27459;-56
2022/07/04 05:52:38;;;;;;;;;;;;;;;25.50;58.64;101168.54;1738181;81;25774;-55
2022/07/04 05:55:07;;;;;;;;;;;;;;;25.62;58.53;101172.77;1722951;81;25762;-56
2022/07/04 05:57:34;;;;;;;;;;;;;;;25.73;57.82;101179.43;1729983;82;26396;-55
2022/07/04 06:00:01;;;;;;;;;;;;;;;25.85;57.57;101173.48;1712978;80;26568;-56
2022/07/04 06:02:29;;;;;;;;;;;;;;;25.90;57.15;101172.25;1718482;82;27673;-56
2022/07/04 06:04:56;;;;;;;;;;;;;;;26.05;57.12;101173.25;1716399;81;25849;-57
2022/07/04 06:07:23;;;;;;;;;;;;;;;26.28;56.81;101169.52;1723091;81;26210;-55
2022/07/04 06:09:50;;;;;;;;;;;;;;;26.49;56.62;101161.27;1734324;81;25839;-56
2022/07/04 06:12:16;;;;;;;;;;;;;;;26.72;56.24;101162.73;1713128;82;25884;-57
2022/07/04 06:14:43;;;;;;;;;;;;;;;26.85;54.90;101157.58;1728685;80;27647;-56
2022/07/04 06:17:09;;;;;;;;;;;;;;;26.95;55.07;101159.78;1723431;81;25731;-56
2022/07/04 06:19:35;;;;;;;;;;;;;;;27.11;54.41;101161.02;1714087;82;25848;-55
2022/07/04 06:22:03;;;;;;;;;;;;;;;27.20;53.52;101166.19;1733081;81;25887;-57
2022/07/04 06:24:30;;;;;;;;;;;;;;;27.33;53.56;101159.05;1726414;81;25764;-56
2022/07/04 06:26:57;;;;;;;;;;;;;;;27.49;52.85;101153.39;1719814;80;29633;-56
2022/07/04 06:29:24;;;;;;;;;;;;;;;27.55;52.81;101151.59;1719081;80;25793;-57
2022/07/04 06:31:50;;;;;;;;;;;;;;;27.52;51.89;101154.82;1726004;80;25825;-56
2022/07/04 06:37:01;;;;;;;;;;;;;;;27.39;52.32;101157.25;1721192;81;25819;-56
2022/07/04 06:39:28;;;;;;;;;;;;;;;27.32;52.53;101156.84;1737488;80;27591;-56
2022/07/04 06:41:55;;;;;;;;;;;;;;;27.28;52.67;101158.38;1729255;81;25780;-56
2022/07/04 06:44:21;;;;;;;;;;;;;;;27.29;52.72;101149.58;1727443;81;26562;-56
2022/07/04 06:46:48;;;;;;;;;;;;;;;27.29;52.66;101152.34;1744912;80;25975;-56
2022/07/04 06:49:14;;;;;;;;;;;;;;;27.26;52.76;101149.48;1753240;80;25714;-55
2022/07/04 06:51:41;;;;;;;;;;;;;;;27.30;52.84;101156.23;1755554;80;27439;-56
2022/07/04 06:54:07;;;;;;;;;;;;;;;27.36;52.71;101142.53;1754370;80;25416;-56
2022/07/04 06:56:34;;;;;;;;;;;;;;;27.34;52.59;101144.98;1752772;80;25690;-57
2022/07/04 06:59:02;;;;;;;;;;;;;;;27.43;53.07;101146.90;1722809;81;26214;-57
2022/07/04 07:01:29;;;;;;;;;;;;;;;27.55;53.08;101146.06;1708136;82;25483;-56
2022/07/04 07:03:55;;;;;;;;;;;;;;;27.63;52.33;101149.84;1705457;82;27395;-56
2022/07/04 07:06:23;;;;;;;;;;;;;;;27.66;52.29;101146.57;1717721;81;25894;-56
2022/07/04 07:08:52;;;;;;;;;;;;;;;27.80;51.93;101144.39;1711069;81;25924;-57
2022/07/04 07:11:19;;;;;;;;;;;;;;;27.94;52.11;101142.20;1721979;80;26164;-57
2022/07/04 07:13:49;;;;;;;;;;;;;;;28.08;51.73;101139.52;1713755;81;25795;-56
2022/07/04 07:16:17;;;;;;;;;;;;;;;28.21;51.25;101141.16;1690176;83;28229;-57
2022/07/04 07:18:44;;;;;;;;;;;;;;;28.35;51.26;101135.32;1716969;81;25925;-56
2022/07/04 07:21:11;;;;;;;;;;;;;;;28.50;51.19;101127.86;1720079;81;25927;-57
2022/07/04 07:23:39;;;;;;;;;;;;;;;28.62;50.83;101129.18;1714594;81;25814;-56
2022/07/04 07:26:06;;;;;;;;;;;;;;;28.70;50.51;101130.16;1722061;81;25833;-56
2022/07/04 07:28:33;;;;;;;;;;;;;;;28.80;50.21;101122.06;1723543;80;28251;-57
2022/07/04 07:31:01;;;;;;;;;;;;;;;28.91;49.99;101122.25;1711488;80;25833;-57
2022/07/04 07:33:28;;;;;;;;;;;;;;;29.05;49.15;101124.44;1707792;83;25841;-56
2022/07/04 07:35:54;;;;;;;;;;;;;;;29.17;48.26;101130.45;1706858;83;25648;-56
2022/07/04 07:38:21;;;;;;;;;;;;;;;29.23;48.00;101123.06;1708504;83;25879;-57
2022/07/04 07:40:47;;;;;;;;;;;;;;;29.25;48.09;101122.23;1713815;80;27497;-57
2022/07/04 07:43:14;;;;;;;;;;;;;;;29.34;47.98;101129.92;1717231;80;25822;-57
2022/07/04 07:45:42;;;;;;;;;;;;;;;29.43;47.97;101122.55;1718769;81;25764;-56
2022/07/04 07:48:08;;;;;;;;;;;;;;;29.49;47.50;101124.30;1735909;81;25832;-57
2022/07/04 07:50:36;;;;;;;;;;;;;;;29.60;47.93;101118.34;1714529;82;25400;-57
2022/07/04 07:53:07;;;;;;;;;;;;;;;29.72;47.59;101121.03;1734637;80;27495;-56
2022/07/04 07:55:33;;;;;;;;;;;;;;;29.83;46.54;101122.81;1721690;82;26640;-57
2022/07/04 07:58:01;;;;;;;;;;;;;;;30.00;46.34;101120.55;1737000;81;25372;-56
2022/07/04 08:00:28;;;;;;;;;;;;;;;30.23;46.67;101119.44;1738477;80;25840;-58
2022/07/04 08:05:39;;;;;;;;;;;;;;;30.51;44.75;101118.37;1709992;80;27642;-55
2022/07/04 08:08:09;;;;;;;;;;;;;;;30.53;44.56;101112.02;1696551;81;25759;-55
2022/07/04 08:10:36;;;;;;;;;;;;;;;30.62;44.75;101119.90;1694064;83;25913;-54
2022/07/04 08:13:05;;;;;;;;;;;;;;;30.77;44.34;101118.64;1692695;82;26138;-55
2022/07/04 08:15:32;;;;;;;;;;;;;;;30.97;43.67;101115.77;1697734;82;25707;-55
2022/07/04 08:18:00;;;;;;;;;;;;;;;31.12;41.78;101116.44;1693771;83;27670;-55
2022/07/04 08:20:26;;;;;;;;;;;;;;;31.24;42.44;101117.66;1693346;83;25727;-55
2022/07/04 08:22:53;;;;;;;;;;;;;;;31.40;42.40;101113.02;1693449;82;25861;-56
2022/07/04 08:25:21;;;;;;;;;;;;;;;31.61;41.56;101114.83;1694126;82;25947;-56
2022/07/04 08:27:47;;;;;;;;;;;;;;;31.74;41.47;101119.09;1688682;82;25837;-56
2022/07/04 08:30:14;;;;;;;;;;;;;;;31.73;41.47;101116.02;1685194;83;27492;-56
2022/07/04 08:32:40;;;;;;;;;;;;;;;31.71;40.89;101115.45;1693273;82;25912;-57
2022/07/04 08:35:08;;;;;;;;;;;;;;;31.78;41.67;101110.47;1686706;83;26604;-56
2022/07/04 08:37:35;;;;;;;;;;;;;;;31.88;40.87;101110.23;1692548;81;25840;-56
2022/07/04 08:40:06;;;;;;;;;;;;;;;31.96;40.88;101112.52;1692299;82;25864;-56
2022/07/04 08:42:37;;;;;;;;;;;;;;;31.96;40.94;101108.34;1699602;83;28171;-55
2022/07/04 08:45:06;;;;;;;;;;;;;;;32.04;41.02;101106.97;1685621;83;26346;-55
2022/07/04 08:47:34;;;;;;;;;;;;;;;32.18;40.48;101101.72;1688000;83;25921;-56
2022/07/04 08:50:11;;;;;;;;;;;;;;;32.32;40.23;101093.14;1695090;83;26523;-57
2022/07/04 08:52:42;;;;;;;;;;;;;;;32.39;40.06;101090.95;1689435;82;25726;-56
2022/07/04 09:00:43;;;;;;;;;;;;;;;32.76;37.89;101082.91;1726785;81;25796;-56
2022/07/04 09:03:10;;;;;;;;;;;;;;;32.83;38.63;101082.64;1729800;81;26557;-55
2022/07/04 09:05:37;;;;;;;;;;;;;;;32.84;38.25;101086.28;1726840;81;25918;-55
2022/07/04 09:08:04;;;;;;;;;;;;;;;33.00;38.77;101082.37;1746396;81;27628;-55
2022/07/04 09:10:31;;;;;;;;;;;;;;;33.24;38.00;101078.97;1749144;80;25986;-55
2022/07/04 09:13:00;;;;;;;;;;;;;;;33.42;38.10;101073.39;1750497;80;25687;-56
2022/07/04 09:15:26;;;;;;;;;;;;;;;33.63;37.85;101073.30;1757251;80;26600;-56
2022/07/04 09:17:53;;;;;;;;;;;;;;;33.86;37.09;101069.90;1755291;80;25791;-56
2022/07/04 09:20:22;;;;;;;;;;;;;;;34.09;36.97;101075.91;1749582;80;27481;-56
2022/07/04 09:22:50;;;;;;;;;;;;;;;34.42;35.72;101067.92;1761554;80;25821;-55
2022/07/04 09:25:18;;;;;;;;;;;;;;;34.68;36.34;101064.07;1749683;80;25687;-56
2022/07/04 09:27:55;;;;;;;;;;;;;;;34.90;34.09;101069.21;1756754;80;25915;-55
2022/07/04 09:30:24;;;;;;;;;;;;;;;35.04;33.79;101073.55;1759930;80;25750;-55
2022/07/04 09:33:04;;;;;;;;;;;;;;;35.08;33.42;101066.25;1745956;81;27412;-56
2022/07/04 09:35:34;;;;;;;;;;;;;;;35.23;32.99;101061.07;1747970;81;26642;-55
2022/07/04 09:38:04;;;;;;;;;;;;;;;35.35;33.69;101054.48;1750353;80;25847;-57
2022/07/04 09:43:22;;;;;;;;;;;;;;;35.41;33.52;101055.29;1746298;81;25894;-55
2022/07/04 09:46:00;;;;;;;;;;;;;;;35.23;33.88;101057.70;1742580;80;27470;-56
2022/07/04 09:48:48;;;;;;;;;;;;;;;34.98;34.52;101053.20;1731255;81;25848;-55
2022/07/04 09:51:15;;;;;;;;;;;;;;;34.90;33.52;101049.64;1730062;81;25964;-56
2022/07/04 09:53:43;;;;;;;;;;;;;;;34.54;34.62;101049.94;1714204;82;25818;-56
2022/07/04 09:56:10;;;;;;;;;;;;;;;34.59;35.18;101052.12;1729728;82;25471;-55
2022/07/04 09:58:36;;;;;;;;;;;;;;;35.08;33.52;101046.69;1714957;82;27643;-57
2022/07/04 10:01:02;;;;;;;;;;;;;;;35.35;33.97;101053.66;1712925;81;25740;-56
2022/07/04 10:03:36;;;;;;;;;;;;;;;35.91;33.72;101044.31;1708991;82;25752;-56
2022/07/04 10:06:05;;;;;;;;;;;;;;;36.47;32.11;101037.89;1719704;81;25812;-56
2022/07/04 10:08:33;;;;;;;;;;;;;;;36.95;31.03;101029.78;1740557;81;25933;-57
2022/07/04 10:11:01;;;;;;;;;;;;;;;37.41;31.22;101032.28;1739974;80;27441;-56
2022/07/04 10:13:28;;;;;;;;;;;;;;;37.83;29.76;101030.83;1733505;81;25694;-56
2022/07/04 10:19:26;;;;;;;;;;;;;;;38.35;29.78;101034.69;1721062;81;26693;-55
2022/07/04 10:21:53;;;;;;;;;;;;;;;38.84;28.32;101032.64;1709999;81;25830;-56
2022/07/04 10:24:19;;;;;;;;;;;;;;;39.24;28.67;101038.27;1707795;82;27555;-56
2022/07/04 10:26:46;;;;;;;;;;;;;;;39.70;28.11;101034.73;1703714;83;25706;-56
2022/07/04 10:29:13;;;;;;;;;;;;;;;40.26;27.56;101027.65;1708360;82;25506;-56
2022/07/04 10:31:40;;;;;;;;;;;;;;;40.47;26.72;101022.99;1715957;81;26084;-56
2022/07/04 10:34:06;;;;;;;;;;;;;;;40.03;25.97;101022.17;1712348;81;25495;-56
2022/07/04 10:36:34;;;;;;;;;;;;;;;39.60;25.46;101023.16;1713154;82;27486;-56
2022/07/04 10:39:03;;;;;;;;;;;;;;;39.01;26.84;101025.44;1706668;81;25898;-56
2022/07/04 10:41:31;;;;;;;;;;;;;;;38.70;27.45;101020.61;1707556;81;25710;-56
2022/07/04 10:44:09;;;;;;;;;;;;;;;38.60;27.27;101013.28;1708750;81;25844;-56
2022/07/04 10:46:37;;;;;;;;;;;;;;;38.58;27.71;101014.17;1720152;80;26856;-56
2022/07/04 10:49:07;;;;;;;;;;;;;;;39.28;27.08;101000.48;1726654;80;28258;-56
2022/07/04 10:51:43;;;;;;;;;;;;;;;40.13;26.88;100997.87;1727437;81;25785;-56
2022/07/04 10:54:13;;;;;;;;;;;;;;;40.95;25.85;100992.00;1710348;80;25867;-56
2022/07/04 10:56:42;;;;;;;;;;;;;;;41.65;24.94;100984.58;1716793;81;26015;-56
2022/07/04 10:59:12;;;;;;;;;;;;;;;42.16;24.36;100990.16;1698393;82;25536;-56
2022/07/04 11:01:38;;;;;;;;;;;;;;;41.76;24.03;100981.59;1704986;82;28528;-56
2022/07/04 11:04:05;;;;;;;;;;;;;;;41.46;24.31;100976.56;1701937;82;25915;-56
2022/07/04 11:06:38;;;;;;;;;;;;;;;41.07;24.34;100980.86;1710175;82;25708;-56
2022/07/04 11:09:19;;;;;;;;;;;;;;;40.48;24.58;100975.30;1713385;82;26649;-56
2022/07/04 11:11:57;;;;;;;;;;;;;;;39.66;25.35;100972.34;1705771;83;25909;-56
2022/07/04 11:14:45;;;;;;;;;;;;;;;39.07;26.22;100985.60;1696753;82;27553;-56
2022/07/04 11:17:20;;;;;;;;;;;;;;;38.67;26.61;100983.58;1717058;82;25755;-56
2022/07/04 11:19:48;;;;;;;;;;;;;;;38.12;26.98;100972.62;1708600;82;25433;-57
2022/07/04 11:22:18;;;;;;;;;;;;;;;37.99;27.72;100968.72;1728935;81;25840;-57
2022/07/04 11:24:45;;;;;;;;;;;;;;;38.66;27.28;100967.86;1734406;81;25823;-56
2022/07/04 11:27:13;;;;;;;;;;;;;;;39.30;26.24;100967.23;1729095;81;46558;-56
2022/07/04 11:29:51;;;;;;;;;;;;;;;38.93;25.65;100960.41;1736253;81;25911;-56
2022/07/04 11:32:19;;;;;;;;;;;;;;;38.26;26.62;100965.53;1723820;81;25795;-56
2022/07/04 11:34:46;;;;;;;;;;;;;;;37.87;27.76;100959.47;1745794;80;25791;-56
2022/07/04 11:37:13;;;;;;;;;;;;;;;37.38;28.09;100959.96;1728012;81;25956;-56
2022/07/04 11:39:39;;;;;;;;;;;;;;;37.69;27.92;100953.67;1722057;80;27566;-56
2022/07/04 11:45:02;;;;;;;;;;;;;;;39.71;25.94;100953.34;1725738;81;25511;-56
2022/07/04 11:47:38;;;;;;;;;;;;;;;40.44;25.52;100953.19;1731692;81;25853;-56
2022/07/04 11:50:10;;;;;;;;;;;;;;;41.15;24.62;100951.77;1721722;81;25879;-56
2022/07/04 11:52:41;;;;;;;;;;;;;;;41.22;24.67;100942.77;1728840;81;27491;-56
2022/07/04 11:55:10;;;;;;;;;;;;;;;41.28;24.06;100946.23;1736605;80;25715;-56
2022/07/04 11:57:45;;;;;;;;;;;;;;;41.69;23.56;100944.61;1729174;81;25846;-56
2022/07/04 12:00:15;;;;;;;;;;;;;;;42.38;23.26;100938.08;1732378;81;25938;-56
2022/07/04 12:02:42;;;;;;;;;;;;;;;43.38;21.02;100945.20;1722547;81;25909;-57
2022/07/04 12:05:10;;;;;;;;;;;;;;;43.87;21.30;100942.27;1729365;80;27545;-56
2022/07/04 12:07:39;;;;;;;;;;;;;;;43.71;20.58;100945.64;1726224;81;25805;-56
2022/07/04 12:10:09;;;;;;;;;;;;;;;43.67;21.21;100943.28;1723075;81;25831;-56
2022/07/04 12:12:35;;;;;;;;;;;;;;;44.28;20.38;100931.44;1726112;80;25977;-56
2022/07/04 12:15:07;;;;;;;;;;;;;;;44.77;18.59;100936.80;1718606;81;25704;-57
2022/07/04 12:17:38;;;;;;;;;;;;;;;44.23;19.96;100934.78;1724810;80;27550;-57
2022/07/04 12:20:14;;;;;;;;;;;;;;;43.45;19.62;100930.69;1707486;81;25662;-57
2022/07/04 12:22:43;;;;;;;;;;;;;;;43.41;20.15;100936.82;1720380;81;25904;-57
2022/07/04 12:25:34;;;;;;;;;;;;;;;44.38;19.29;100934.58;1724401;81;25879;-57
2022/07/04 12:28:02;;;;;;;;;;;;;;;44.91;18.76;100926.42;1722299;82;25765;-57
2022/07/04 12:30:31;;;;;;;;;;;;;;;45.37;18.64;100923.02;1713539;82;27501;-58
2022/07/04 12:33:01;;;;;;;;;;;;;;;45.90;17.75;100918.84;1715678;82;25713;-57
2022/07/04 12:35:36;;;;;;;;;;;;;;;45.98;17.71;100922.69;1718555;82;25909;-57
2022/07/04 12:38:15;;;;;;;;;;;;;;;46.31;17.85;100922.67;1691390;82;25963;-56
2022/07/04 12:41:03;;;;;;;;;;;;;;;46.80;17.05;100916.23;1697320;82;25520;-57
2022/07/04 12:43:45;;;;;;;;;;;;;;;47.11;16.86;100924.84;1696688;82;27666;-58
2022/07/04 12:46:15;;;;;;;;;;;;;;;47.16;16.55;100915.98;1711071;80;25753;-56
2022/07/04 12:48:42;;;;;;;;;;;;;;;47.42;16.64;100914.28;1715096;81;25649;-57
2022/07/04 12:51:33;;;;;;;;;;;;;;;47.69;16.10;100911.39;1700541;81;26660;-57
2022/07/04 12:54:11;;;;;;;;;;;;;;;46.96;16.27;100910.99;1716203;82;25530;-58
2022/07/04 12:56:46;;;;;;;;;;;;;;;46.70;16.64;100908.34;1687776;83;29258;-57
2022/07/04 12:59:17;;;;;;;;;;;;;;;46.62;16.28;100896.62;1722764;82;25817;-57
2022/07/04 13:01:45;;;;;;;;;;;;;;;46.74;16.32;100894.97;1724633;82;25789;-57
2022/07/04 13:04:13;;;;;;;;;;;;;;;46.98;16.92;100894.36;1716902;82;26454;-57
2022/07/04 13:06:40;;;;;;;;;;;;;;;47.08;17.01;100892.86;1715937;81;25889;-57